sensor_id;sensor_type;location;lat;lon;timestamp;P1;durP1;ratioP1;P2;durP2;ratioP2
25687;SDS011;17407;51.120;3.702;2022-10-18T02:38:43;23.33;;;18.55;;
25687;SDS011;17407;51.120;3.702;2022-10-18T02:41:10;22.42;;;17.95;;
25687;SDS011;17407;51.120;3.702;2022-10-18T03:45:30;24.90;;;16.77;;
25687;SDS011;17407;51.120;3.702;2022-10-18T03:48:40;24.73;;;16.65;;
25687;SDS011;17407;51.120;3.702;2022-10-18T03:51:49;17.50;;;15.50;;
25687;SDS011;17407;51.120;3.702;2022-10-18T03:55:00;24.02;;;16.13;;
25687;SDS011;17407;51.120;3.702;2022-10-18T03:58:09;25.60;;;16.38;;
25687;SDS011;17407;51.120;3.702;2022-10-18T04:01:19;25.08;;;16.17;;
25687;SDS011;17407;51.120;3.702;2022-10-18T04:04:44;31.50;;;19.20;;
25687;SDS011;17407;51.120;3.702;2022-10-18T04:07:53;26.20;;;17.95;;
25687;SDS011;17407;51.120;3.702;2022-10-18T04:11:05;27.88;;;19.05;;
25687;SDS011;17407;51.120;3.702;2022-10-18T04:14:15;20.80;;;16.77;;
25687;SDS011;17407;51.120;3.702;2022-10-18T04:17:25;24.38;;;18.00;;
25687;SDS011;17407;51.120;3.702;2022-10-18T04:20:34;29.70;;;18.67;;
25687;SDS011;17407;51.120;3.702;2022-10-18T04:23:46;28.95;;;19.45;;
25687;SDS011;17407;51.120;3.702;2022-10-18T04:26:54;25.90;;;18.90;;
25687;SDS011;17407;51.120;3.702;2022-10-18T04:30:04;30.60;;;18.20;;
25687;SDS011;17407;51.120;3.702;2022-10-18T04:33:13;30.52;;;17.98;;
25687;SDS011;17407;51.120;3.702;2022-10-18T04:36:24;24.85;;;17.55;;
25687;SDS011;17407;51.120;3.702;2022-10-18T04:39:33;32.22;;;19.90;;
25687;SDS011;17407;51.120;3.702;2022-10-18T04:49:40;32.45;;;18.85;;
25687;SDS011;17407;51.120;3.702;2022-10-18T04:52:49;32.65;;;19.60;;
25687;SDS011;17407;51.120;3.702;2022-10-18T04:55:59;31.52;;;20.02;;
25687;SDS011;17407;51.120;3.702;2022-10-18T04:59:09;25.95;;;18.00;;
25687;SDS011;17407;51.120;3.702;2022-10-18T05:02:18;25.77;;;19.58;;
25687;SDS011;17407;51.120;3.702;2022-10-18T05:05:42;28.45;;;17.65;;
25687;SDS011;17407;51.120;3.702;2022-10-18T05:08:52;29.08;;;19.13;;
25687;SDS011;17407;51.120;3.702;2022-10-18T05:12:00;21.95;;;17.17;;
25687;SDS011;17407;51.120;3.702;2022-10-18T05:15:09;27.92;;;18.50;;
25687;SDS011;17407;51.120;3.702;2022-10-18T05:18:20;25.63;;;17.50;;
25687;SDS011;17407;51.120;3.702;2022-10-18T05:21:29;28.55;;;17.48;;
25687;SDS011;17407;51.120;3.702;2022-10-18T05:24:38;31.38;;;18.38;;
25687;SDS011;17407;51.120;3.702;2022-10-18T05:27:48;44.22;;;20.77;;
25687;SDS011;17407;51.120;3.702;2022-10-18T05:31:02;57.25;;;21.92;;
25687;SDS011;17407;51.120;3.702;2022-10-18T05:34:12;35.67;;;19.95;;
25687;SDS011;17407;51.120;3.702;2022-10-18T05:37:21;95.03;;;23.60;;
25687;SDS011;17407;51.120;3.702;2022-10-18T05:40:30;93.57;;;22.70;;
25687;SDS011;17407;51.120;3.702;2022-10-18T05:43:40;124.57;;;30.70;;
25687;SDS011;17407;51.120;3.702;2022-10-18T05:46:48;89.70;;;21.98;;
25687;SDS011;17407;51.120;3.702;2022-10-18T05:49:58;65.10;;;21.13;;
25687;SDS011;17407;51.120;3.702;2022-10-18T05:53:08;39.10;;;19.00;;
25687;SDS011;17407;51.120;3.702;2022-10-18T05:56:18;108.65;;;19.30;;
25687;SDS011;17407;51.120;3.702;2022-10-18T05:59:27;145.10;;;20.17;;
25687;SDS011;17407;51.120;3.702;2022-10-18T06:02:37;86.88;;;16.60;;
25687;SDS011;17407;51.120;3.702;2022-10-18T06:06:01;104.40;;;17.73;;
25687;SDS011;17407;51.120;3.702;2022-10-18T06:09:11;69.47;;;14.73;;
25687;SDS011;17407;51.120;3.702;2022-10-18T06:12:22;48.00;;;13.85;;
25687;SDS011;17407;51.120;3.702;2022-10-18T06:15:31;49.50;;;13.82;;
25687;SDS011;17407;51.120;3.702;2022-10-18T06:18:41;66.85;;;14.25;;
25687;SDS011;17407;51.120;3.702;2022-10-18T06:21:50;39.38;;;12.60;;
25687;SDS011;17407;51.120;3.702;2022-10-18T06:25:00;69.72;;;14.52;;
25687;SDS011;17407;51.120;3.702;2022-10-18T06:28:09;21.98;;;13.60;;
25687;SDS011;17407;51.120;3.702;2022-10-18T06:31:18;28.33;;;12.15;;
25687;SDS011;17407;51.120;3.702;2022-10-18T06:34:28;17.30;;;11.75;;
25687;SDS011;17407;51.120;3.702;2022-10-18T06:37:37;34.17;;;17.17;;
25687;SDS011;17407;51.120;3.702;2022-10-18T06:40:46;35.03;;;14.15;;
25687;SDS011;17407;51.120;3.702;2022-10-18T06:43:56;29.05;;;13.75;;
25687;SDS011;17407;51.120;3.702;2022-10-18T06:47:06;33.35;;;13.68;;
25687;SDS011;17407;51.120;3.702;2022-10-18T06:50:14;24.55;;;11.45;;
25687;SDS011;17407;51.120;3.702;2022-10-18T06:53:25;25.52;;;11.98;;
25687;SDS011;17407;51.120;3.702;2022-10-18T06:56:34;29.15;;;11.23;;
25687;SDS011;17407;51.120;3.702;2022-10-18T06:59:43;23.38;;;11.88;;
25687;SDS011;17407;51.120;3.702;2022-10-18T07:02:55;24.42;;;13.02;;
25687;SDS011;17407;51.120;3.702;2022-10-18T07:06:19;32.33;;;14.82;;
25687;SDS011;17407;51.120;3.702;2022-10-18T07:09:28;34.40;;;15.48;;
25687;SDS011;17407;51.120;3.702;2022-10-18T07:12:38;35.08;;;13.20;;
25687;SDS011;17407;51.120;3.702;2022-10-18T07:15:47;34.53;;;15.98;;
25687;SDS011;17407;51.120;3.702;2022-10-18T07:18:56;27.85;;;15.35;;
25687;SDS011;17407;51.120;3.702;2022-10-18T07:22:06;51.53;;;15.30;;
25687;SDS011;17407;51.120;3.702;2022-10-18T07:25:16;30.80;;;16.20;;
25687;SDS011;17407;51.120;3.702;2022-10-18T07:28:26;42.17;;;17.15;;
25687;SDS011;17407;51.120;3.702;2022-10-18T07:31:36;48.67;;;16.67;;
25687;SDS011;17407;51.120;3.702;2022-10-18T07:34:45;35.97;;;15.35;;
25687;SDS011;17407;51.120;3.702;2022-10-18T07:37:55;23.73;;;12.98;;
25687;SDS011;17407;51.120;3.702;2022-10-18T07:41:05;53.15;;;15.00;;
25687;SDS011;17407;51.120;3.702;2022-10-18T07:44:14;35.05;;;15.13;;
25687;SDS011;17407;51.120;3.702;2022-10-18T08:01:43;29.67;;;15.15;;
25687;SDS011;17407;51.120;3.702;2022-10-18T08:05:07;52.15;;;15.15;;
25687;SDS011;17407;51.120;3.702;2022-10-18T08:08:16;25.85;;;14.35;;
25687;SDS011;17407;51.120;3.702;2022-10-18T08:11:27;22.85;;;13.95;;
25687;SDS011;17407;51.120;3.702;2022-10-18T08:14:37;29.55;;;14.48;;
25687;SDS011;17407;51.120;3.702;2022-10-18T08:17:47;22.52;;;14.48;;
25687;SDS011;17407;51.120;3.702;2022-10-18T08:21:00;27.23;;;14.23;;
25687;SDS011;17407;51.120;3.702;2022-10-18T08:24:11;18.13;;;15.05;;
25687;SDS011;17407;51.120;3.702;2022-10-18T08:27:20;16.98;;;15.25;;
25687;SDS011;17407;51.120;3.702;2022-10-18T08:30:29;20.92;;;15.80;;
25687;SDS011;17407;51.120;3.702;2022-10-18T08:33:39;15.38;;;13.77;;
25687;SDS011;17407;51.120;3.702;2022-10-18T08:36:48;24.38;;;19.25;;
25687;SDS011;17407;51.120;3.702;2022-10-18T08:39:58;25.77;;;17.10;;
25687;SDS011;17407;51.120;3.702;2022-10-18T08:43:13;21.85;;;17.50;;
25687;SDS011;17407;51.120;3.702;2022-10-18T08:46:24;20.08;;;14.68;;
25687;SDS011;17407;51.120;3.702;2022-10-18T08:56:11;23.95;;;12.98;;
25687;SDS011;17407;51.120;3.702;2022-10-18T08:59:20;22.98;;;11.85;;
25687;SDS011;17407;51.120;3.702;2022-10-18T09:09:10;21.00;;;7.65;;
25687;SDS011;17407;51.120;3.702;2022-10-18T09:22:03;15.55;;;5.53;;
25687;SDS011;17407;51.120;3.702;2022-10-18T09:38:25;13.60;;;5.40;;
25687;SDS011;17407;51.120;3.702;2022-10-18T09:41:39;17.25;;;5.85;;
25687;SDS011;17407;51.120;3.702;2022-10-18T09:44:53;13.27;;;5.75;;
25687;SDS011;17407;51.120;3.702;2022-10-18T09:51:14;15.90;;;6.97;;
25687;SDS011;17407;51.120;3.702;2022-10-18T09:54:39;16.52;;;6.57;;
25687;SDS011;17407;51.120;3.702;2022-10-18T10:01:27;24.58;;;8.95;;
25687;SDS011;17407;51.120;3.702;2022-10-18T10:04:54;18.13;;;7.07;;
25687;SDS011;17407;51.120;3.702;2022-10-18T10:08:04;28.42;;;8.32;;
25687;SDS011;17407;51.120;3.702;2022-10-18T10:11:27;23.70;;;8.38;;
25687;SDS011;17407;51.120;3.702;2022-10-18T10:14:42;33.28;;;10.90;;
25687;SDS011;17407;51.120;3.702;2022-10-18T10:18:01;29.00;;;10.60;;
25687;SDS011;17407;51.120;3.702;2022-10-18T10:21:12;19.95;;;8.02;;
25687;SDS011;17407;51.120;3.702;2022-10-18T10:24:24;17.60;;;7.43;;
25687;SDS011;17407;51.120;3.702;2022-10-18T10:27:38;26.85;;;8.13;;
25687;SDS011;17407;51.120;3.702;2022-10-18T10:30:47;21.05;;;6.68;;
25687;SDS011;17407;51.120;3.702;2022-10-18T10:37:01;16.08;;;6.90;;
25687;SDS011;17407;51.120;3.702;2022-10-18T10:40:12;15.60;;;5.05;;
25687;SDS011;17407;51.120;3.702;2022-10-18T10:43:23;20.15;;;5.80;;
25687;SDS011;17407;51.120;3.702;2022-10-18T10:46:34;22.30;;;5.57;;
25687;SDS011;17407;51.120;3.702;2022-10-18T10:53:25;24.85;;;6.18;;
25687;SDS011;17407;51.120;3.702;2022-10-18T10:56:36;15.68;;;4.80;;
25687;SDS011;17407;51.120;3.702;2022-10-18T14:57:49;13.23;;;3.35;;
25687;SDS011;17407;51.120;3.702;2022-10-18T15:00:18;12.93;;;3.30;;
25687;SDS011;17407;51.120;3.702;2022-10-18T15:02:49;10.18;;;3.30;;
25687;SDS011;17407;51.120;3.702;2022-10-18T15:07:41;10.48;;;3.50;;
25687;SDS011;17407;51.120;3.702;2022-10-18T16:22:54;12.88;;;3.10;;
25687;SDS011;17407;51.120;3.702;2022-10-18T16:26:03;20.83;;;4.35;;
25687;SDS011;17407;51.120;3.702;2022-10-18T16:29:12;9.05;;;3.00;;
25687;SDS011;17407;51.120;3.702;2022-10-18T16:32:23;18.85;;;3.60;;
25687;SDS011;17407;51.120;3.702;2022-10-18T16:35:32;13.60;;;3.05;;
25687;SDS011;17407;51.120;3.702;2022-10-18T16:38:42;16.38;;;3.60;;
25687;SDS011;17407;51.120;3.702;2022-10-18T16:41:51;11.52;;;3.25;;
25687;SDS011;17407;51.120;3.702;2022-10-18T16:45:01;12.35;;;2.97;;
25687;SDS011;17407;51.120;3.702;2022-10-18T16:48:14;15.15;;;3.42;;
25687;SDS011;17407;51.120;3.702;2022-10-18T16:51:23;16.95;;;3.55;;
25687;SDS011;17407;51.120;3.702;2022-10-18T16:54:32;13.27;;;3.47;;
25687;SDS011;17407;51.120;3.702;2022-10-18T16:57:42;13.48;;;4.13;;
25687;SDS011;17407;51.120;3.702;2022-10-18T17:00:52;10.88;;;3.63;;
25687;SDS011;17407;51.120;3.702;2022-10-18T18:06:54;12.75;;;4.20;;
25687;SDS011;17407;51.120;3.702;2022-10-18T18:09:21;13.02;;;3.40;;
25687;SDS011;17407;51.120;3.702;2022-10-18T19:24:51;9.95;;;3.28;;
25687;SDS011;17407;51.120;3.702;2022-10-18T19:28:00;9.57;;;2.90;;
25687;SDS011;17407;51.120;3.702;2022-10-18T19:31:10;12.32;;;3.00;;
25687;SDS011;17407;51.120;3.702;2022-10-18T19:34:19;9.40;;;3.30;;
25687;SDS011;17407;51.120;3.702;2022-10-18T19:37:29;12.80;;;3.08;;
25687;SDS011;17407;51.120;3.702;2022-10-18T19:40:39;5.13;;;2.78;;
25687;SDS011;17407;51.120;3.702;2022-10-18T19:43:48;13.27;;;3.00;;
25687;SDS011;17407;51.120;3.702;2022-10-18T19:46:59;10.82;;;2.90;;
25687;SDS011;17407;51.120;3.702;2022-10-18T19:53:37;9.80;;;3.60;;
25687;SDS011;17407;51.120;3.702;2022-10-18T19:56:46;12.65;;;3.17;;
25687;SDS011;17407;51.120;3.702;2022-10-18T19:59:56;6.80;;;2.47;;
25687;SDS011;17407;51.120;3.702;2022-10-18T20:03:06;6.00;;;3.08;;
25687;SDS011;17407;51.120;3.702;2022-10-18T20:05:55;11.38;;;2.90;;
25687;SDS011;17407;51.120;3.702;2022-10-18T21:21:10;10.52;;;4.30;;
25687;SDS011;17407;51.120;3.702;2022-10-18T21:24:21;15.85;;;4.70;;
25687;SDS011;17407;51.120;3.702;2022-10-18T21:27:30;17.50;;;5.70;;
25687;SDS011;17407;51.120;3.702;2022-10-18T21:30:40;23.02;;;5.75;;
25687;SDS011;17407;51.120;3.702;2022-10-18T21:33:53;15.13;;;3.85;;
25687;SDS011;17407;51.120;3.702;2022-10-18T21:37:03;10.27;;;3.70;;
25687;SDS011;17407;51.120;3.702;2022-10-18T21:40:13;10.48;;;3.00;;
25687;SDS011;17407;51.120;3.702;2022-10-18T21:43:23;8.65;;;2.63;;
25687;SDS011;17407;51.120;3.702;2022-10-18T21:46:33;11.35;;;2.80;;
25687;SDS011;17407;51.120;3.702;2022-10-18T21:49:42;8.73;;;2.85;;
25687;SDS011;17407;51.120;3.702;2022-10-18T21:52:52;10.30;;;3.10;;
25687;SDS011;17407;51.120;3.702;2022-10-18T21:56:05;6.85;;;2.63;;
25687;SDS011;17407;51.120;3.702;2022-10-18T21:59:15;7.80;;;2.60;;
25687;SDS011;17407;51.120;3.702;2022-10-18T22:02:25;12.18;;;3.17;;
25687;SDS011;17407;51.120;3.702;2022-10-18T22:05:59;7.32;;;2.95;;
25687;SDS011;17407;51.120;3.702;2022-10-18T22:09:08;8.73;;;2.30;;
25687;SDS011;17407;51.120;3.702;2022-10-18T22:12:18;10.35;;;3.30;;
25687;SDS011;17407;51.120;3.702;2022-10-18T22:15:28;14.77;;;3.15;;
25687;SDS011;17407;51.120;3.702;2022-10-18T22:40:20;12.98;;;3.55;;
25687;SDS011;17407;51.120;3.702;2022-10-18T22:43:29;9.98;;;3.25;;
25687;SDS011;17407;51.120;3.702;2022-10-18T22:46:39;14.45;;;3.28;;
25687;SDS011;17407;51.120;3.702;2022-10-18T22:49:48;8.18;;;3.70;;
25687;SDS011;17407;51.120;3.702;2022-10-18T22:52:58;12.02;;;3.30;;
25687;SDS011;17407;51.120;3.702;2022-10-18T22:56:10;12.30;;;3.20;;
25687;SDS011;17407;51.120;3.702;2022-10-18T22:59:20;10.60;;;3.35;;
25687;SDS011;17407;51.120;3.702;2022-10-18T23:02:29;14.95;;;3.65;;
25687;SDS011;17407;51.120;3.702;2022-10-18T23:05:53;16.52;;;3.67;;
25687;SDS011;17407;51.120;3.702;2022-10-18T23:09:03;8.70;;;2.92;;
25687;SDS011;17407;51.120;3.702;2022-10-18T23:12:14;8.90;;;3.50;;
25687;SDS011;17407;51.120;3.702;2022-10-18T23:15:23;18.80;;;4.07;;
25687;SDS011;17407;51.120;3.702;2022-10-18T23:18:32;12.30;;;3.53;;
25687;SDS011;17407;51.120;3.702;2022-10-18T23:21:42;11.48;;;3.40;;
25687;SDS011;17407;51.120;3.702;2022-10-18T23:24:50;13.85;;;3.97;;
25687;SDS011;17407;51.120;3.702;2022-10-18T23:28:00;8.63;;;3.90;;
25687;SDS011;17407;51.120;3.702;2022-10-18T23:31:10;13.27;;;4.03;;
25687;SDS011;17407;51.120;3.702;2022-10-18T23:34:19;7.38;;;3.25;;
25687;SDS011;17407;51.120;3.702;2022-10-18T23:51:50;11.90;;;3.78;;
25687;SDS011;17407;51.120;3.702;2022-10-18T23:55:00;9.95;;;3.60;;
25687;SDS011;17407;51.120;3.702;2022-10-18T23:58:10;15.15;;;3.92;;
